sensor_id;sensor_type;location;lat;lon;timestamp;P1;durP1;ratioP1;P2;durP2;ratioP2
54123;SDS011;55741;53.252;5.788;2023-03-13T00:01:29;33.38;;;7.55;;
54123;SDS011;55741;53.252;5.788;2023-03-13T00:03:59;47.03;;;8.02;;
54123;SDS011;55741;53.252;5.788;2023-03-13T00:06:26;42.00;;;7.40;;
54123;SDS011;55741;53.252;5.788;2023-03-13T00:08:57;30.30;;;6.80;;
54123;SDS011;55741;53.252;5.788;2023-03-13T00:11:25;37.80;;;7.07;;
54123;SDS011;55741;53.252;5.788;2023-03-13T00:13:55;36.20;;;7.57;;
54123;SDS011;55741;53.252;5.788;2023-03-13T00:16:22;38.70;;;8.57;;
54123;SDS011;55741;53.252;5.788;2023-03-13T00:18:50;38.60;;;8.00;;
54123;SDS011;55741;53.252;5.788;2023-03-13T00:21:18;50.03;;;7.95;;
54123;SDS011;55741;53.252;5.788;2023-03-13T00:23:45;41.67;;;8.85;;
54123;SDS011;55741;53.252;5.788;2023-03-13T00:26:12;45.22;;;8.43;;
54123;SDS011;55741;53.252;5.788;2023-03-13T00:28:41;38.72;;;8.60;;
54123;SDS011;55741;53.252;5.788;2023-03-13T00:31:08;45.90;;;9.48;;
54123;SDS011;55741;53.252;5.788;2023-03-13T00:33:34;42.95;;;8.52;;
54123;SDS011;55741;53.252;5.788;2023-03-13T00:36:02;41.17;;;8.13;;
54123;SDS011;55741;53.252;5.788;2023-03-13T00:38:34;34.10;;;7.88;;
54123;SDS011;55741;53.252;5.788;2023-03-13T00:41:01;59.22;;;8.38;;
54123;SDS011;55741;53.252;5.788;2023-03-13T00:43:28;41.50;;;7.32;;
54123;SDS011;55741;53.252;5.788;2023-03-13T00:45:55;41.03;;;9.02;;
54123;SDS011;55741;53.252;5.788;2023-03-13T00:48:21;38.10;;;9.18;;
54123;SDS011;55741;53.252;5.788;2023-03-13T00:50:47;45.15;;;8.60;;
54123;SDS011;55741;53.252;5.788;2023-03-13T00:53:13;40.50;;;7.60;;
54123;SDS011;55741;53.252;5.788;2023-03-13T00:55:40;41.80;;;9.10;;
54123;SDS011;55741;53.252;5.788;2023-03-13T00:58:20;35.80;;;7.88;;
54123;SDS011;55741;53.252;5.788;2023-03-13T01:00:46;36.35;;;8.48;;
54123;SDS011;55741;53.252;5.788;2023-03-13T01:03:12;32.83;;;7.80;;
54123;SDS011;55741;53.252;5.788;2023-03-13T01:05:38;41.47;;;7.78;;
54123;SDS011;55741;53.252;5.788;2023-03-13T01:08:04;41.38;;;9.77;;
54123;SDS011;55741;53.252;5.788;2023-03-13T01:10:30;27.58;;;7.65;;
54123;SDS011;55741;53.252;5.788;2023-03-13T01:12:55;33.30;;;9.77;;
54123;SDS011;55741;53.252;5.788;2023-03-13T01:15:21;35.08;;;7.55;;
54123;SDS011;55741;53.252;5.788;2023-03-13T01:17:48;33.95;;;8.82;;
54123;SDS011;55741;53.252;5.788;2023-03-13T01:20:14;36.30;;;8.23;;
54123;SDS011;55741;53.252;5.788;2023-03-13T01:22:40;35.05;;;8.27;;
54123;SDS011;55741;53.252;5.788;2023-03-13T01:25:06;31.75;;;7.25;;
54123;SDS011;55741;53.252;5.788;2023-03-13T01:27:32;42.47;;;8.52;;
54123;SDS011;55741;53.252;5.788;2023-03-13T01:29:58;50.55;;;8.80;;
54123;SDS011;55741;53.252;5.788;2023-03-13T01:32:24;36.53;;;7.60;;
54123;SDS011;55741;53.252;5.788;2023-03-13T01:34:50;42.65;;;7.75;;
54123;SDS011;55741;53.252;5.788;2023-03-13T01:37:15;43.30;;;7.05;;
54123;SDS011;55741;53.252;5.788;2023-03-13T01:39:43;40.85;;;9.02;;
54123;SDS011;55741;53.252;5.788;2023-03-13T01:42:08;38.15;;;8.77;;
54123;SDS011;55741;53.252;5.788;2023-03-13T01:44:51;39.33;;;7.72;;
54123;SDS011;55741;53.252;5.788;2023-03-13T01:47:18;41.58;;;8.82;;
54123;SDS011;55741;53.252;5.788;2023-03-13T01:49:44;40.92;;;9.20;;
54123;SDS011;55741;53.252;5.788;2023-03-13T01:52:25;35.65;;;9.32;;
54123;SDS011;55741;53.252;5.788;2023-03-13T01:55:04;44.38;;;11.00;;
54123;SDS011;55741;53.252;5.788;2023-03-13T01:57:39;39.53;;;9.13;;
54123;SDS011;55741;53.252;5.788;2023-03-13T02:00:09;33.33;;;9.60;;
54123;SDS011;55741;53.252;5.788;2023-03-13T02:02:45;29.52;;;9.82;;
54123;SDS011;55741;53.252;5.788;2023-03-13T02:05:14;31.95;;;9.25;;
54123;SDS011;55741;53.252;5.788;2023-03-13T02:07:47;31.33;;;8.50;;
54123;SDS011;55741;53.252;5.788;2023-03-13T02:10:17;31.00;;;9.15;;
54123;SDS011;55741;53.252;5.788;2023-03-13T02:12:43;33.30;;;9.82;;
54123;SDS011;55741;53.252;5.788;2023-03-13T02:15:16;30.58;;;9.25;;
54123;SDS011;55741;53.252;5.788;2023-03-13T02:17:45;29.70;;;10.40;;
54123;SDS011;55741;53.252;5.788;2023-03-13T02:20:13;26.42;;;11.10;;
54123;SDS011;55741;53.252;5.788;2023-03-13T02:27:50;26.55;;;8.85;;
54123;SDS011;55741;53.252;5.788;2023-03-13T02:30:19;25.65;;;8.48;;
54123;SDS011;55741;53.252;5.788;2023-03-13T02:32:45;25.70;;;9.75;;
54123;SDS011;55741;53.252;5.788;2023-03-13T02:35:12;21.05;;;8.00;;
54123;SDS011;55741;53.252;5.788;2023-03-13T02:37:42;19.98;;;7.82;;
54123;SDS011;55741;53.252;5.788;2023-03-13T02:40:13;16.35;;;8.48;;
54123;SDS011;55741;53.252;5.788;2023-03-13T02:42:42;17.08;;;8.07;;
54123;SDS011;55741;53.252;5.788;2023-03-13T02:45:12;23.65;;;8.20;;
54123;SDS011;55741;53.252;5.788;2023-03-13T02:47:39;20.42;;;8.40;;
54123;SDS011;55741;53.252;5.788;2023-03-13T02:50:05;14.52;;;8.18;;
54123;SDS011;55741;53.252;5.788;2023-03-13T02:52:32;12.82;;;8.07;;
54123;SDS011;55741;53.252;5.788;2023-03-13T02:55:38;16.65;;;7.82;;
54123;SDS011;55741;53.252;5.788;2023-03-13T02:57:57;15.23;;;7.68;;
54123;SDS011;55741;53.252;5.788;2023-03-13T03:00:23;11.20;;;5.97;;
54123;SDS011;55741;53.252;5.788;2023-03-13T03:02:54;17.13;;;7.97;;
54123;SDS011;55741;53.252;5.788;2023-03-13T03:05:20;14.45;;;7.18;;
54123;SDS011;55741;53.252;5.788;2023-03-13T03:07:47;10.02;;;7.05;;
54123;SDS011;55741;53.252;5.788;2023-03-13T03:10:14;14.68;;;8.38;;
54123;SDS011;55741;53.252;5.788;2023-03-13T03:12:41;9.90;;;7.30;;
54123;SDS011;55741;53.252;5.788;2023-03-13T03:15:07;12.30;;;5.50;;
54123;SDS011;55741;53.252;5.788;2023-03-13T03:17:33;12.38;;;6.60;;
54123;SDS011;55741;53.252;5.788;2023-03-13T03:19:59;11.18;;;6.07;;
54123;SDS011;55741;53.252;5.788;2023-03-13T03:22:25;12.68;;;7.13;;
54123;SDS011;55741;53.252;5.788;2023-03-13T03:24:50;13.07;;;6.57;;
54123;SDS011;55741;53.252;5.788;2023-03-13T03:27:16;9.20;;;6.88;;
54123;SDS011;55741;53.252;5.788;2023-03-13T03:29:42;10.60;;;6.68;;
54123;SDS011;55741;53.252;5.788;2023-03-13T03:32:08;9.13;;;6.43;;
54123;SDS011;55741;53.252;5.788;2023-03-13T03:34:34;9.85;;;6.50;;
54123;SDS011;55741;53.252;5.788;2023-03-13T03:36:59;8.90;;;6.53;;
54123;SDS011;55741;53.252;5.788;2023-03-13T03:39:25;8.75;;;6.38;;
54123;SDS011;55741;53.252;5.788;2023-03-13T03:41:53;8.60;;;5.63;;
54123;SDS011;55741;53.252;5.788;2023-03-13T03:44:18;7.95;;;6.20;;
54123;SDS011;55741;53.252;5.788;2023-03-13T03:46:44;7.97;;;5.45;;
54123;SDS011;55741;53.252;5.788;2023-03-13T03:49:10;9.85;;;6.60;;
54123;SDS011;55741;53.252;5.788;2023-03-13T03:51:36;11.25;;;7.35;;
54123;SDS011;55741;53.252;5.788;2023-03-13T03:54:01;8.35;;;6.35;;
54123;SDS011;55741;53.252;5.788;2023-03-13T03:56:27;10.25;;;7.15;;
54123;SDS011;55741;53.252;5.788;2023-03-13T03:58:53;13.80;;;10.55;;
54123;SDS011;55741;53.252;5.788;2023-03-13T04:01:19;13.95;;;11.10;;
54123;SDS011;55741;53.252;5.788;2023-03-13T04:03:45;18.90;;;11.80;;
54123;SDS011;55741;53.252;5.788;2023-03-13T04:06:12;19.75;;;13.40;;
54123;SDS011;55741;53.252;5.788;2023-03-13T04:08:38;18.52;;;12.93;;
54123;SDS011;55741;53.252;5.788;2023-03-13T04:11:04;22.83;;;14.90;;
54123;SDS011;55741;53.252;5.788;2023-03-13T04:13:29;21.15;;;13.73;;
54123;SDS011;55741;53.252;5.788;2023-03-13T04:15:55;26.52;;;14.13;;
54123;SDS011;55741;53.252;5.788;2023-03-13T04:18:21;25.23;;;14.32;;
54123;SDS011;55741;53.252;5.788;2023-03-13T04:20:47;23.48;;;12.52;;
54123;SDS011;55741;53.252;5.788;2023-03-13T04:23:12;30.98;;;10.25;;
54123;SDS011;55741;53.252;5.788;2023-03-13T04:25:38;25.60;;;11.32;;
54123;SDS011;55741;53.252;5.788;2023-03-13T04:28:04;25.90;;;9.77;;
54123;SDS011;55741;53.252;5.788;2023-03-13T04:30:30;35.28;;;10.30;;
54123;SDS011;55741;53.252;5.788;2023-03-13T04:32:56;30.67;;;9.57;;
54123;SDS011;55741;53.252;5.788;2023-03-13T04:35:23;32.50;;;10.35;;
54123;SDS011;55741;53.252;5.788;2023-03-13T04:37:48;37.97;;;10.93;;
54123;SDS011;55741;53.252;5.788;2023-03-13T04:40:14;35.33;;;9.05;;
54123;SDS011;55741;53.252;5.788;2023-03-13T04:42:42;28.63;;;7.85;;
54123;SDS011;55741;53.252;5.788;2023-03-13T04:45:10;39.95;;;9.57;;
54123;SDS011;55741;53.252;5.788;2023-03-13T04:47:36;33.47;;;8.73;;
54123;SDS011;55741;53.252;5.788;2023-03-13T04:50:02;31.20;;;8.85;;
54123;SDS011;55741;53.252;5.788;2023-03-13T04:52:28;30.27;;;8.90;;
54123;SDS011;55741;53.252;5.788;2023-03-13T04:54:54;29.42;;;8.48;;
54123;SDS011;55741;53.252;5.788;2023-03-13T04:57:20;26.90;;;9.38;;
54123;SDS011;55741;53.252;5.788;2023-03-13T04:59:45;24.90;;;7.85;;
54123;SDS011;55741;53.252;5.788;2023-03-13T05:02:11;32.25;;;8.85;;
54123;SDS011;55741;53.252;5.788;2023-03-13T05:04:37;21.45;;;6.82;;
54123;SDS011;55741;53.252;5.788;2023-03-13T05:07:03;26.08;;;8.13;;
54123;SDS011;55741;53.252;5.788;2023-03-13T05:09:29;30.70;;;8.63;;
54123;SDS011;55741;53.252;5.788;2023-03-13T05:11:55;28.85;;;8.32;;
54123;SDS011;55741;53.252;5.788;2023-03-13T05:14:21;24.90;;;8.27;;
54123;SDS011;55741;53.252;5.788;2023-03-13T05:16:47;24.77;;;6.97;;
54123;SDS011;55741;53.252;5.788;2023-03-13T05:19:13;23.08;;;7.40;;
54123;SDS011;55741;53.252;5.788;2023-03-13T05:21:38;17.98;;;6.90;;
54123;SDS011;55741;53.252;5.788;2023-03-13T05:24:04;21.05;;;6.50;;
54123;SDS011;55741;53.252;5.788;2023-03-13T05:26:30;21.17;;;6.35;;
54123;SDS011;55741;53.252;5.788;2023-03-13T05:28:56;27.40;;;6.88;;
54123;SDS011;55741;53.252;5.788;2023-03-13T05:31:22;21.90;;;7.10;;
54123;SDS011;55741;53.252;5.788;2023-03-13T05:33:47;21.20;;;6.55;;
54123;SDS011;55741;53.252;5.788;2023-03-13T05:36:13;25.58;;;7.53;;
54123;SDS011;55741;53.252;5.788;2023-03-13T05:38:39;28.60;;;6.82;;
54123;SDS011;55741;53.252;5.788;2023-03-13T05:41:05;29.75;;;8.38;;
54123;SDS011;55741;53.252;5.788;2023-03-13T05:43:32;26.17;;;7.40;;
54123;SDS011;55741;53.252;5.788;2023-03-13T05:45:58;26.95;;;7.32;;
54123;SDS011;55741;53.252;5.788;2023-03-13T05:48:24;32.40;;;7.47;;
54123;SDS011;55741;53.252;5.788;2023-03-13T05:50:50;37.50;;;9.13;;
54123;SDS011;55741;53.252;5.788;2023-03-13T05:53:16;25.52;;;7.57;;
54123;SDS011;55741;53.252;5.788;2023-03-13T05:55:42;24.35;;;8.10;;
54123;SDS011;55741;53.252;5.788;2023-03-13T05:58:08;30.42;;;9.68;;
54123;SDS011;55741;53.252;5.788;2023-03-13T06:00:34;30.60;;;8.73;;
54123;SDS011;55741;53.252;5.788;2023-03-13T06:02:59;28.92;;;7.97;;
54123;SDS011;55741;53.252;5.788;2023-03-13T06:05:25;33.80;;;8.57;;
54123;SDS011;55741;53.252;5.788;2023-03-13T06:07:51;34.47;;;8.80;;
54123;SDS011;55741;53.252;5.788;2023-03-13T06:10:17;28.25;;;8.27;;
54123;SDS011;55741;53.252;5.788;2023-03-13T06:12:43;25.60;;;7.55;;
54123;SDS011;55741;53.252;5.788;2023-03-13T06:15:09;27.90;;;9.13;;
54123;SDS011;55741;53.252;5.788;2023-03-13T06:17:35;29.48;;;7.15;;
54123;SDS011;55741;53.252;5.788;2023-03-13T06:20:01;24.98;;;6.93;;
54123;SDS011;55741;53.252;5.788;2023-03-13T06:22:30;32.45;;;6.75;;
54123;SDS011;55741;53.252;5.788;2023-03-13T06:24:56;22.20;;;5.97;;
54123;SDS011;55741;53.252;5.788;2023-03-13T06:27:22;25.42;;;7.03;;
54123;SDS011;55741;53.252;5.788;2023-03-13T06:29:48;23.63;;;5.53;;
54123;SDS011;55741;53.252;5.788;2023-03-13T06:32:13;23.30;;;6.07;;
54123;SDS011;55741;53.252;5.788;2023-03-13T06:34:40;26.23;;;5.85;;
54123;SDS011;55741;53.252;5.788;2023-03-13T06:37:05;23.85;;;6.18;;
54123;SDS011;55741;53.252;5.788;2023-03-13T06:39:31;33.17;;;6.93;;
54123;SDS011;55741;53.252;5.788;2023-03-13T06:41:58;32.65;;;7.63;;
54123;SDS011;55741;53.252;5.788;2023-03-13T06:44:25;26.85;;;6.35;;
54123;SDS011;55741;53.252;5.788;2023-03-13T06:46:51;20.88;;;5.93;;
54123;SDS011;55741;53.252;5.788;2023-03-13T06:49:17;22.17;;;6.03;;
54123;SDS011;55741;53.252;5.788;2023-03-13T06:51:43;29.08;;;7.35;;
54123;SDS011;55741;53.252;5.788;2023-03-13T06:54:09;23.75;;;6.18;;
54123;SDS011;55741;53.252;5.788;2023-03-13T06:56:34;35.00;;;6.70;;
54123;SDS011;55741;53.252;5.788;2023-03-13T06:59:00;23.00;;;6.38;;
54123;SDS011;55741;53.252;5.788;2023-03-13T07:01:26;31.27;;;6.38;;
54123;SDS011;55741;53.252;5.788;2023-03-13T07:03:52;24.73;;;6.13;;
54123;SDS011;55741;53.252;5.788;2023-03-13T07:06:18;24.50;;;5.82;;
54123;SDS011;55741;53.252;5.788;2023-03-13T07:08:44;20.60;;;5.10;;
54123;SDS011;55741;53.252;5.788;2023-03-13T07:11:11;31.15;;;6.20;;
54123;SDS011;55741;53.252;5.788;2023-03-13T07:13:37;20.05;;;5.70;;
54123;SDS011;55741;53.252;5.788;2023-03-13T07:16:08;26.52;;;6.53;;
54123;SDS011;55741;53.252;5.788;2023-03-13T07:18:36;28.52;;;6.05;;
54123;SDS011;55741;53.252;5.788;2023-03-13T07:21:03;27.10;;;6.43;;
54123;SDS011;55741;53.252;5.788;2023-03-13T07:23:29;26.60;;;5.65;;
54123;SDS011;55741;53.252;5.788;2023-03-13T07:26:00;20.52;;;5.90;;
54123;SDS011;55741;53.252;5.788;2023-03-13T07:28:27;24.92;;;5.85;;
54123;SDS011;55741;53.252;5.788;2023-03-13T07:31:01;18.90;;;5.15;;
54123;SDS011;55741;53.252;5.788;2023-03-13T07:33:35;23.10;;;6.22;;
54123;SDS011;55741;53.252;5.788;2023-03-13T07:36:01;26.45;;;5.85;;
54123;SDS011;55741;53.252;5.788;2023-03-13T07:38:27;22.00;;;6.50;;
54123;SDS011;55741;53.252;5.788;2023-03-13T07:40:53;25.08;;;6.60;;
54123;SDS011;55741;53.252;5.788;2023-03-13T07:43:21;21.25;;;6.18;;
54123;SDS011;55741;53.252;5.788;2023-03-13T07:48:19;24.13;;;6.30;;
54123;SDS011;55741;53.252;5.788;2023-03-13T07:50:46;26.08;;;5.97;;
54123;SDS011;55741;53.252;5.788;2023-03-13T07:53:12;27.10;;;8.57;;
54123;SDS011;55741;53.252;5.788;2023-03-13T07:55:38;23.80;;;5.53;;
54123;SDS011;55741;53.252;5.788;2023-03-13T07:58:04;24.00;;;6.60;;
54123;SDS011;55741;53.252;5.788;2023-03-13T08:00:29;24.10;;;5.03;;
54123;SDS011;55741;53.252;5.788;2023-03-13T08:02:55;27.08;;;6.10;;
54123;SDS011;55741;53.252;5.788;2023-03-13T08:05:21;24.58;;;5.05;;
54123;SDS011;55741;53.252;5.788;2023-03-13T08:07:47;26.77;;;6.55;;
54123;SDS011;55741;53.252;5.788;2023-03-13T08:10:13;21.42;;;5.15;;
54123;SDS011;55741;53.252;5.788;2023-03-13T08:12:39;19.73;;;5.93;;
54123;SDS011;55741;53.252;5.788;2023-03-13T08:15:05;18.48;;;5.05;;
54123;SDS011;55741;53.252;5.788;2023-03-13T08:17:31;19.35;;;5.22;;
54123;SDS011;55741;53.252;5.788;2023-03-13T08:19:57;28.27;;;7.60;;
54123;SDS011;55741;53.252;5.788;2023-03-13T08:22:23;17.80;;;4.18;;
54123;SDS011;55741;53.252;5.788;2023-03-13T08:24:48;25.58;;;4.70;;
54123;SDS011;55741;53.252;5.788;2023-03-13T08:27:14;22.50;;;5.10;;
54123;SDS011;55741;53.252;5.788;2023-03-13T08:29:40;23.00;;;5.97;;
54123;SDS011;55741;53.252;5.788;2023-03-13T08:32:06;25.40;;;5.30;;
54123;SDS011;55741;53.252;5.788;2023-03-13T08:34:32;22.67;;;4.85;;
54123;SDS011;55741;53.252;5.788;2023-03-13T08:36:59;21.80;;;5.22;;
54123;SDS011;55741;53.252;5.788;2023-03-13T08:39:25;18.52;;;4.82;;
54123;SDS011;55741;53.252;5.788;2023-03-13T08:41:50;17.60;;;5.03;;
54123;SDS011;55741;53.252;5.788;2023-03-13T08:44:17;19.88;;;4.38;;
54123;SDS011;55741;53.252;5.788;2023-03-13T08:46:46;20.38;;;4.47;;
54123;SDS011;55741;53.252;5.788;2023-03-13T08:49:13;16.63;;;3.67;;
54123;SDS011;55741;53.252;5.788;2023-03-13T08:51:41;17.70;;;4.22;;
54123;SDS011;55741;53.252;5.788;2023-03-13T08:54:07;16.65;;;4.18;;
54123;SDS011;55741;53.252;5.788;2023-03-13T08:56:34;10.93;;;3.25;;
54123;SDS011;55741;53.252;5.788;2023-03-13T08:59:01;15.05;;;4.85;;
54123;SDS011;55741;53.252;5.788;2023-03-13T09:01:29;14.18;;;3.75;;
54123;SDS011;55741;53.252;5.788;2023-03-13T09:03:56;15.35;;;4.18;;
54123;SDS011;55741;53.252;5.788;2023-03-13T09:06:22;17.50;;;4.47;;
54123;SDS011;55741;53.252;5.788;2023-03-13T09:08:48;14.70;;;3.55;;
54123;SDS011;55741;53.252;5.788;2023-03-13T09:11:16;22.92;;;4.65;;
54123;SDS011;55741;53.252;5.788;2023-03-13T09:13:44;18.65;;;4.03;;
54123;SDS011;55741;53.252;5.788;2023-03-13T09:16:13;18.90;;;4.80;;
54123;SDS011;55741;53.252;5.788;2023-03-13T09:18:41;18.73;;;4.95;;
54123;SDS011;55741;53.252;5.788;2023-03-13T09:21:08;15.95;;;4.00;;
54123;SDS011;55741;53.252;5.788;2023-03-13T09:23:37;18.65;;;4.80;;
54123;SDS011;55741;53.252;5.788;2023-03-13T09:26:03;23.90;;;4.43;;
54123;SDS011;55741;53.252;5.788;2023-03-13T09:28:29;25.58;;;6.00;;
54123;SDS011;55741;53.252;5.788;2023-03-13T09:30:55;29.33;;;4.85;;
54123;SDS011;55741;53.252;5.788;2023-03-13T09:33:31;21.73;;;4.50;;
54123;SDS011;55741;53.252;5.788;2023-03-13T09:35:57;26.98;;;4.78;;
54123;SDS011;55741;53.252;5.788;2023-03-13T09:38:22;19.73;;;4.43;;
54123;SDS011;55741;53.252;5.788;2023-03-13T09:40:49;25.88;;;4.97;;
54123;SDS011;55741;53.252;5.788;2023-03-13T09:43:31;18.75;;;5.15;;
54123;SDS011;55741;53.252;5.788;2023-03-13T09:46:05;24.60;;;4.68;;
54123;SDS011;55741;53.252;5.788;2023-03-13T09:48:43;21.75;;;5.13;;
54123;SDS011;55741;53.252;5.788;2023-03-13T09:51:17;18.02;;;4.50;;
54123;SDS011;55741;53.252;5.788;2023-03-13T09:53:50;21.00;;;4.60;;
54123;SDS011;55741;53.252;5.788;2023-03-13T09:56:43;20.13;;;5.13;;
54123;SDS011;55741;53.252;5.788;2023-03-13T10:04:53;23.13;;;5.40;;
54123;SDS011;55741;53.252;5.788;2023-03-13T10:07:26;28.63;;;4.78;;
54123;SDS011;55741;53.252;5.788;2023-03-13T10:09:52;29.23;;;5.95;;
54123;SDS011;55741;53.252;5.788;2023-03-13T10:12:19;21.95;;;4.88;;
54123;SDS011;55741;53.252;5.788;2023-03-13T10:17:29;27.95;;;6.28;;
54123;SDS011;55741;53.252;5.788;2023-03-13T10:22:41;22.38;;;5.90;;
54123;SDS011;55741;53.252;5.788;2023-03-13T10:27:51;28.00;;;5.28;;
54123;SDS011;55741;53.252;5.788;2023-03-13T10:30:30;25.98;;;5.60;;
54123;SDS011;55741;53.252;5.788;2023-03-13T10:35:33;25.55;;;5.50;;
54123;SDS011;55741;53.252;5.788;2023-03-13T10:38:02;26.80;;;6.65;;
54123;SDS011;55741;53.252;5.788;2023-03-13T10:40:33;19.13;;;5.35;;
54123;SDS011;55741;53.252;5.788;2023-03-13T10:43:01;24.60;;;5.30;;
54123;SDS011;55741;53.252;5.788;2023-03-13T10:45:36;25.77;;;5.85;;
54123;SDS011;55741;53.252;5.788;2023-03-13T10:48:03;34.72;;;6.50;;
54123;SDS011;55741;53.252;5.788;2023-03-13T10:50:43;26.52;;;7.50;;
54123;SDS011;55741;53.252;5.788;2023-03-13T10:53:52;29.23;;;5.93;;
54123;SDS011;55741;53.252;5.788;2023-03-13T10:58:47;26.45;;;4.65;;
54123;SDS011;55741;53.252;5.788;2023-03-13T11:01:16;25.40;;;5.35;;
54123;SDS011;55741;53.252;5.788;2023-03-13T11:03:53;24.95;;;5.72;;
54123;SDS011;55741;53.252;5.788;2023-03-13T11:06:22;26.42;;;6.18;;
54123;SDS011;55741;53.252;5.788;2023-03-13T11:08:59;20.45;;;5.35;;
54123;SDS011;55741;53.252;5.788;2023-03-13T11:12:20;24.60;;;6.63;;
54123;SDS011;55741;53.252;5.788;2023-03-13T11:14:34;23.83;;;6.93;;
54123;SDS011;55741;53.252;5.788;2023-03-13T11:17:07;26.65;;;5.03;;
54123;SDS011;55741;53.252;5.788;2023-03-13T11:25:19;25.65;;;5.80;;
54123;SDS011;55741;53.252;5.788;2023-03-13T11:31:20;19.10;;;4.75;;
54123;SDS011;55741;53.252;5.788;2023-03-13T11:44:47;28.80;;;5.28;;
54123;SDS011;55741;53.252;5.788;2023-03-13T11:59:15;28.88;;;5.88;;
54123;SDS011;55741;53.252;5.788;2023-03-13T12:02:37;36.13;;;6.78;;
54123;SDS011;55741;53.252;5.788;2023-03-13T12:04:54;29.65;;;5.93;;
54123;SDS011;55741;53.252;5.788;2023-03-13T12:07:26;22.50;;;4.72;;
54123;SDS011;55741;53.252;5.788;2023-03-13T12:12:45;24.80;;;4.88;;
54123;SDS011;55741;53.252;5.788;2023-03-13T12:15:21;22.38;;;6.07;;
54123;SDS011;55741;53.252;5.788;2023-03-13T12:18:01;21.17;;;5.55;;
54123;SDS011;55741;53.252;5.788;2023-03-13T12:25:48;24.55;;;6.15;;
54123;SDS011;55741;53.252;5.788;2023-03-13T12:28:24;28.50;;;6.18;;
54123;SDS011;55741;53.252;5.788;2023-03-13T12:30:58;27.58;;;6.90;;
54123;SDS011;55741;53.252;5.788;2023-03-13T12:33:45;23.15;;;5.22;;
54123;SDS011;55741;53.252;5.788;2023-03-13T12:36:23;29.20;;;6.38;;
54123;SDS011;55741;53.252;5.788;2023-03-13T12:39:19;30.88;;;6.30;;
54123;SDS011;55741;53.252;5.788;2023-03-13T12:44:34;34.17;;;5.93;;
54123;SDS011;55741;53.252;5.788;2023-03-13T12:47:07;26.27;;;5.72;;
54123;SDS011;55741;53.252;5.788;2023-03-13T13:01:01;25.02;;;6.25;;
54123;SDS011;55741;53.252;5.788;2023-03-13T13:03:42;27.88;;;6.15;;
54123;SDS011;55741;53.252;5.788;2023-03-13T13:06:12;33.05;;;6.32;;
54123;SDS011;55741;53.252;5.788;2023-03-13T13:08:43;20.58;;;5.22;;
54123;SDS011;55741;53.252;5.788;2023-03-13T13:16:44;30.63;;;6.50;;
54123;SDS011;55741;53.252;5.788;2023-03-13T13:32:43;35.90;;;7.60;;
54123;SDS011;55741;53.252;5.788;2023-03-13T13:40:56;30.17;;;7.10;;
54123;SDS011;55741;53.252;5.788;2023-03-13T13:43:47;34.47;;;6.93;;
54123;SDS011;55741;53.252;5.788;2023-03-13T13:46:26;28.35;;;6.05;;
54123;SDS011;55741;53.252;5.788;2023-03-13T13:54:01;23.23;;;5.63;;
54123;SDS011;55741;53.252;5.788;2023-03-13T13:56:48;28.42;;;6.40;;
54123;SDS011;55741;53.252;5.788;2023-03-13T14:01:47;28.58;;;7.65;;
54123;SDS011;55741;53.252;5.788;2023-03-13T14:04:18;24.65;;;6.13;;
54123;SDS011;55741;53.252;5.788;2023-03-13T14:06:58;32.08;;;6.72;;
54123;SDS011;55741;53.252;5.788;2023-03-13T14:11:56;27.33;;;6.47;;
54123;SDS011;55741;53.252;5.788;2023-03-13T14:14:22;32.53;;;6.43;;
54123;SDS011;55741;53.252;5.788;2023-03-13T14:16:48;32.17;;;7.93;;
54123;SDS011;55741;53.252;5.788;2023-03-13T14:19:22;30.05;;;7.68;;
54123;SDS011;55741;53.252;5.788;2023-03-13T14:22:01;28.15;;;6.88;;
54123;SDS011;55741;53.252;5.788;2023-03-13T14:24:29;40.72;;;7.22;;
54123;SDS011;55741;53.252;5.788;2023-03-13T14:26:55;36.92;;;7.82;;
54123;SDS011;55741;53.252;5.788;2023-03-13T14:29:21;31.17;;;7.80;;
54123;SDS011;55741;53.252;5.788;2023-03-13T14:31:51;36.03;;;7.80;;
54123;SDS011;55741;53.252;5.788;2023-03-13T14:34:18;31.98;;;7.25;;
54123;SDS011;55741;53.252;5.788;2023-03-13T14:37:02;33.42;;;7.90;;
54123;SDS011;55741;53.252;5.788;2023-03-13T14:39:53;30.73;;;8.10;;
54123;SDS011;55741;53.252;5.788;2023-03-13T14:42:19;35.30;;;7.78;;
54123;SDS011;55741;53.252;5.788;2023-03-13T14:44:45;32.38;;;7.43;;
54123;SDS011;55741;53.252;5.788;2023-03-13T14:47:24;39.03;;;8.98;;
54123;SDS011;55741;53.252;5.788;2023-03-13T14:50:08;36.33;;;6.68;;
54123;SDS011;55741;53.252;5.788;2023-03-13T14:52:39;28.92;;;6.15;;
54123;SDS011;55741;53.252;5.788;2023-03-13T14:57:57;34.05;;;7.10;;
54123;SDS011;55741;53.252;5.788;2023-03-13T15:00:33;36.95;;;8.45;;
54123;SDS011;55741;53.252;5.788;2023-03-13T15:06:06;37.17;;;7.22;;
54123;SDS011;55741;53.252;5.788;2023-03-13T15:08:37;32.90;;;7.65;;
54123;SDS011;55741;53.252;5.788;2023-03-13T15:13:54;34.85;;;8.05;;
54123;SDS011;55741;53.252;5.788;2023-03-13T15:16:21;41.22;;;9.05;;
54123;SDS011;55741;53.252;5.788;2023-03-13T15:18:48;42.50;;;8.02;;
54123;SDS011;55741;53.252;5.788;2023-03-13T15:24:01;38.50;;;8.70;;
54123;SDS011;55741;53.252;5.788;2023-03-13T15:26:39;37.28;;;7.80;;
54123;SDS011;55741;53.252;5.788;2023-03-13T15:29:05;35.40;;;8.60;;
54123;SDS011;55741;53.252;5.788;2023-03-13T15:31:32;50.97;;;9.38;;
54123;SDS011;55741;53.252;5.788;2023-03-13T15:33:58;43.10;;;9.98;;
54123;SDS011;55741;53.252;5.788;2023-03-13T15:36:26;38.45;;;10.68;;
54123;SDS011;55741;53.252;5.788;2023-03-13T15:38:53;40.65;;;7.82;;
54123;SDS011;55741;53.252;5.788;2023-03-13T15:41:20;32.45;;;8.10;;
54123;SDS011;55741;53.252;5.788;2023-03-13T15:43:46;48.38;;;9.82;;
54123;SDS011;55741;53.252;5.788;2023-03-13T15:46:17;36.72;;;8.18;;
54123;SDS011;55741;53.252;5.788;2023-03-13T15:48:44;38.72;;;8.85;;
54123;SDS011;55741;53.252;5.788;2023-03-13T15:51:12;37.83;;;8.15;;
54123;SDS011;55741;53.252;5.788;2023-03-13T15:53:39;49.17;;;8.93;;
54123;SDS011;55741;53.252;5.788;2023-03-13T15:56:14;37.92;;;8.27;;
54123;SDS011;55741;53.252;5.788;2023-03-13T15:58:42;41.37;;;8.63;;
54123;SDS011;55741;53.252;5.788;2023-03-13T16:01:10;42.42;;;8.77;;
54123;SDS011;55741;53.252;5.788;2023-03-13T16:03:37;41.15;;;8.10;;
54123;SDS011;55741;53.252;5.788;2023-03-13T16:06:08;36.97;;;8.52;;
54123;SDS011;55741;53.252;5.788;2023-03-13T16:08:54;40.78;;;10.35;;
54123;SDS011;55741;53.252;5.788;2023-03-13T16:11:24;41.97;;;8.43;;
54123;SDS011;55741;53.252;5.788;2023-03-13T16:13:51;39.05;;;7.80;;
54123;SDS011;55741;53.252;5.788;2023-03-13T16:16:30;38.67;;;8.23;;
54123;SDS011;55741;53.252;5.788;2023-03-13T16:18:59;39.80;;;8.23;;
54123;SDS011;55741;53.252;5.788;2023-03-13T16:21:26;39.92;;;8.18;;
54123;SDS011;55741;53.252;5.788;2023-03-13T16:23:53;39.83;;;8.93;;
54123;SDS011;55741;53.252;5.788;2023-03-13T16:26:20;49.13;;;8.45;;
54123;SDS011;55741;53.252;5.788;2023-03-13T16:28:49;45.17;;;8.05;;
54123;SDS011;55741;53.252;5.788;2023-03-13T16:31:26;44.30;;;9.85;;
54123;SDS011;55741;53.252;5.788;2023-03-13T16:33:56;43.97;;;8.65;;
54123;SDS011;55741;53.252;5.788;2023-03-13T16:36:27;47.35;;;9.00;;
54123;SDS011;55741;53.252;5.788;2023-03-13T16:38:55;42.53;;;9.30;;
54123;SDS011;55741;53.252;5.788;2023-03-13T16:41:26;35.63;;;7.95;;
54123;SDS011;55741;53.252;5.788;2023-03-13T16:43:53;45.47;;;8.45;;
54123;SDS011;55741;53.252;5.788;2023-03-13T16:46:20;48.97;;;9.30;;
54123;SDS011;55741;53.252;5.788;2023-03-13T16:48:57;36.88;;;8.48;;
54123;SDS011;55741;53.252;5.788;2023-03-13T16:51:23;41.88;;;9.18;;